sensor_id;sensor_type;location;lat;lon;timestamp;P1;durP1;ratioP1;P2;durP2;ratioP2
70744;SDS011;59284;31.390;34.904;2023-06-24T00:02:18;12.82;;;7.65;;
70744;SDS011;59284;31.390;34.904;2023-06-24T00:05:01;13.50;;;6.97;;
70744;SDS011;59284;31.390;34.904;2023-06-24T00:07:46;13.63;;;7.78;;
70744;SDS011;59284;31.390;34.904;2023-06-24T00:10:27;14.07;;;8.27;;
70744;SDS011;59284;31.390;34.904;2023-06-24T00:13:16;12.70;;;7.57;;
70744;SDS011;59284;31.390;34.904;2023-06-24T00:16:05;12.82;;;7.57;;
70744;SDS011;59284;31.390;34.904;2023-06-24T00:18:55;12.57;;;7.83;;
70744;SDS011;59284;31.390;34.904;2023-06-24T00:21:51;17.38;;;9.00;;
70744;SDS011;59284;31.390;34.904;2023-06-24T00:24:41;16.33;;;9.00;;
70744;SDS011;59284;31.390;34.904;2023-06-24T00:27:31;15.50;;;8.30;;
70744;SDS011;59284;31.390;34.904;2023-06-24T00:30:21;15.68;;;8.35;;
70744;SDS011;59284;31.390;34.904;2023-06-24T00:33:14;15.17;;;8.77;;
70744;SDS011;59284;31.390;34.904;2023-06-24T00:36:03;14.73;;;8.80;;
70744;SDS011;59284;31.390;34.904;2023-06-24T00:38:51;14.60;;;9.32;;
70744;SDS011;59284;31.390;34.904;2023-06-24T00:41:40;12.93;;;8.45;;
70744;SDS011;59284;31.390;34.904;2023-06-24T00:44:31;14.23;;;9.05;;
70744;SDS011;59284;31.390;34.904;2023-06-24T00:47:22;14.33;;;7.87;;
70744;SDS011;59284;31.390;34.904;2023-06-24T00:50:11;19.83;;;11.43;;
70744;SDS011;59284;31.390;34.904;2023-06-24T00:53:02;18.95;;;11.48;;
70744;SDS011;59284;31.390;34.904;2023-06-24T00:55:50;23.27;;;12.02;;
70744;SDS011;59284;31.390;34.904;2023-06-24T00:58:44;23.00;;;13.25;;
70744;SDS011;59284;31.390;34.904;2023-06-24T01:01:34;22.20;;;10.30;;
70744;SDS011;59284;31.390;34.904;2023-06-24T01:04:26;22.30;;;10.10;;
70744;SDS011;59284;31.390;34.904;2023-06-24T01:07:16;19.77;;;11.48;;
70744;SDS011;59284;31.390;34.904;2023-06-24T01:10:07;17.13;;;11.40;;
70744;SDS011;59284;31.390;34.904;2023-06-24T01:12:57;21.63;;;11.38;;
70744;SDS011;59284;31.390;34.904;2023-06-24T01:15:47;22.80;;;11.93;;
70744;SDS011;59284;31.390;34.904;2023-06-24T01:18:40;22.58;;;11.30;;
70744;SDS011;59284;31.390;34.904;2023-06-24T01:22:04;20.13;;;10.57;;
70744;SDS011;59284;31.390;34.904;2023-06-24T01:34:28;15.32;;;7.43;;
70744;SDS011;59284;31.390;34.904;2023-06-24T01:37:26;16.08;;;8.45;;
70744;SDS011;59284;31.390;34.904;2023-06-24T01:40:27;11.05;;;7.63;;
70744;SDS011;59284;31.390;34.904;2023-06-24T01:43:17;12.85;;;7.03;;
70744;SDS011;59284;31.390;34.904;2023-06-24T01:46:06;10.47;;;6.77;;
70744;SDS011;59284;31.390;34.904;2023-06-24T01:49:01;13.77;;;7.18;;
70744;SDS011;59284;31.390;34.904;2023-06-24T01:51:53;12.88;;;7.53;;
70744;SDS011;59284;31.390;34.904;2023-06-24T01:54:47;13.38;;;8.30;;
70744;SDS011;59284;31.390;34.904;2023-06-24T01:57:40;12.13;;;7.68;;
70744;SDS011;59284;31.390;34.904;2023-06-24T02:00:31;11.40;;;7.07;;
70744;SDS011;59284;31.390;34.904;2023-06-24T02:03:22;14.55;;;7.57;;
70744;SDS011;59284;31.390;34.904;2023-06-24T02:06:14;11.57;;;6.68;;
70744;SDS011;59284;31.390;34.904;2023-06-24T02:09:05;9.40;;;5.50;;
70744;SDS011;59284;31.390;34.904;2023-06-24T02:11:57;8.23;;;6.07;;
70744;SDS011;59284;31.390;34.904;2023-06-24T02:14:47;8.07;;;4.80;;
70744;SDS011;59284;31.390;34.904;2023-06-24T02:17:38;7.57;;;4.55;;
70744;SDS011;59284;31.390;34.904;2023-06-24T02:20:31;5.45;;;3.83;;
70744;SDS011;59284;31.390;34.904;2023-06-24T02:23:22;6.50;;;4.18;;
70744;SDS011;59284;31.390;34.904;2023-06-24T02:26:14;8.10;;;4.20;;
70744;SDS011;59284;31.390;34.904;2023-06-24T02:29:07;5.95;;;3.60;;
70744;SDS011;59284;31.390;34.904;2023-06-24T02:31:59;6.60;;;3.80;;
70744;SDS011;59284;31.390;34.904;2023-06-24T02:34:49;4.93;;;3.47;;
70744;SDS011;59284;31.390;34.904;2023-06-24T02:37:40;9.88;;;4.20;;
70744;SDS011;59284;31.390;34.904;2023-06-24T02:40:30;6.95;;;3.88;;
70744;SDS011;59284;31.390;34.904;2023-06-24T02:43:21;6.95;;;3.28;;
70744;SDS011;59284;31.390;34.904;2023-06-24T02:46:12;6.63;;;4.03;;
70744;SDS011;59284;31.390;34.904;2023-06-24T02:49:02;9.38;;;4.75;;
70744;SDS011;59284;31.390;34.904;2023-06-24T02:51:53;7.65;;;4.38;;
70744;SDS011;59284;31.390;34.904;2023-06-24T02:54:44;8.90;;;5.22;;
70744;SDS011;59284;31.390;34.904;2023-06-24T02:57:36;9.32;;;4.88;;
70744;SDS011;59284;31.390;34.904;2023-06-24T03:00:27;5.33;;;3.60;;
70744;SDS011;59284;31.390;34.904;2023-06-24T03:03:16;9.30;;;3.80;;
70744;SDS011;59284;31.390;34.904;2023-06-24T03:06:06;5.10;;;3.28;;
70744;SDS011;59284;31.390;34.904;2023-06-24T03:08:57;4.88;;;3.03;;
70744;SDS011;59284;31.390;34.904;2023-06-24T03:11:49;8.65;;;3.15;;
70744;SDS011;59284;31.390;34.904;2023-06-24T03:14:37;5.57;;;3.10;;
70744;SDS011;59284;31.390;34.904;2023-06-24T03:17:29;6.30;;;2.88;;
70744;SDS011;59284;31.390;34.904;2023-06-24T03:20:19;6.22;;;3.33;;
70744;SDS011;59284;31.390;34.904;2023-06-24T03:23:09;6.43;;;3.33;;
70744;SDS011;59284;31.390;34.904;2023-06-24T03:25:59;4.90;;;2.65;;
70744;SDS011;59284;31.390;34.904;2023-06-24T03:28:50;5.73;;;3.00;;
70744;SDS011;59284;31.390;34.904;2023-06-24T03:31:39;5.72;;;3.00;;
70744;SDS011;59284;31.390;34.904;2023-06-24T03:34:29;6.32;;;2.70;;
70744;SDS011;59284;31.390;34.904;2023-06-24T03:37:19;5.93;;;2.67;;
70744;SDS011;59284;31.390;34.904;2023-06-24T03:40:08;6.57;;;2.90;;
70744;SDS011;59284;31.390;34.904;2023-06-24T03:43:00;5.43;;;3.03;;
70744;SDS011;59284;31.390;34.904;2023-06-24T03:45:50;5.90;;;2.50;;
70744;SDS011;59284;31.390;34.904;2023-06-24T03:48:42;8.98;;;2.80;;
70744;SDS011;59284;31.390;34.904;2023-06-24T03:51:34;5.43;;;2.83;;
70744;SDS011;59284;31.390;34.904;2023-06-24T03:54:25;5.85;;;2.70;;
70744;SDS011;59284;31.390;34.904;2023-06-24T03:57:18;4.57;;;2.73;;
70744;SDS011;59284;31.390;34.904;2023-06-24T04:00:08;6.43;;;2.75;;
70744;SDS011;59284;31.390;34.904;2023-06-24T04:02:59;5.32;;;2.60;;
70744;SDS011;59284;31.390;34.904;2023-06-24T04:05:55;6.25;;;2.80;;
70744;SDS011;59284;31.390;34.904;2023-06-24T04:08:47;3.83;;;2.20;;
70744;SDS011;59284;31.390;34.904;2023-06-24T04:11:37;6.45;;;2.70;;
70744;SDS011;59284;31.390;34.904;2023-06-24T04:14:28;4.03;;;2.40;;
70744;SDS011;59284;31.390;34.904;2023-06-24T04:17:22;4.25;;;2.05;;
70744;SDS011;59284;31.390;34.904;2023-06-24T04:20:12;5.30;;;2.22;;
70744;SDS011;59284;31.390;34.904;2023-06-24T04:23:05;6.72;;;2.58;;
70744;SDS011;59284;31.390;34.904;2023-06-24T04:25:58;4.47;;;2.33;;
70744;SDS011;59284;31.390;34.904;2023-06-24T04:28:52;4.33;;;2.60;;
70744;SDS011;59284;31.390;34.904;2023-06-24T04:31:46;4.47;;;2.22;;
70744;SDS011;59284;31.390;34.904;2023-06-24T04:34:39;7.93;;;2.00;;
70744;SDS011;59284;31.390;34.904;2023-06-24T04:37:32;4.63;;;1.73;;
70744;SDS011;59284;31.390;34.904;2023-06-24T04:40:25;4.97;;;2.50;;
70744;SDS011;59284;31.390;34.904;2023-06-24T04:43:19;4.70;;;2.23;;
70744;SDS011;59284;31.390;34.904;2023-06-24T04:46:11;4.20;;;2.47;;
70744;SDS011;59284;31.390;34.904;2023-06-24T04:49:06;4.80;;;2.25;;
70744;SDS011;59284;31.390;34.904;2023-06-24T04:52:01;5.55;;;2.55;;
70744;SDS011;59284;31.390;34.904;2023-06-24T04:54:53;7.05;;;2.53;;
70744;SDS011;59284;31.390;34.904;2023-06-24T04:57:47;3.70;;;1.93;;
70744;SDS011;59284;31.390;34.904;2023-06-24T05:00:40;6.00;;;2.63;;
70744;SDS011;59284;31.390;34.904;2023-06-24T05:03:33;4.25;;;2.53;;
70744;SDS011;59284;31.390;34.904;2023-06-24T05:06:27;5.22;;;2.25;;
70744;SDS011;59284;31.390;34.904;2023-06-24T05:09:19;4.78;;;2.30;;
70744;SDS011;59284;31.390;34.904;2023-06-24T05:37:09;8.35;;;3.25;;
70744;SDS011;59284;31.390;34.904;2023-06-24T05:40:03;7.13;;;2.53;;
70744;SDS011;59284;31.390;34.904;2023-06-24T05:42:56;4.30;;;2.50;;
70744;SDS011;59284;31.390;34.904;2023-06-24T05:45:48;4.10;;;2.53;;
70744;SDS011;59284;31.390;34.904;2023-06-24T05:48:41;4.32;;;2.53;;
70744;SDS011;59284;31.390;34.904;2023-06-24T05:51:35;5.72;;;2.92;;
70744;SDS011;59284;31.390;34.904;2023-06-24T05:54:28;5.93;;;2.58;;
70744;SDS011;59284;31.390;34.904;2023-06-24T05:57:22;6.00;;;2.63;;
70744;SDS011;59284;31.390;34.904;2023-06-24T06:00:17;3.93;;;2.10;;
70744;SDS011;59284;31.390;34.904;2023-06-24T06:03:10;4.03;;;2.63;;
70744;SDS011;59284;31.390;34.904;2023-06-24T06:06:03;5.18;;;2.50;;
70744;SDS011;59284;31.390;34.904;2023-06-24T06:08:56;5.22;;;2.38;;
70744;SDS011;59284;31.390;34.904;2023-06-24T06:11:47;6.22;;;2.42;;
70744;SDS011;59284;31.390;34.904;2023-06-24T06:14:41;4.37;;;2.30;;
70744;SDS011;59284;31.390;34.904;2023-06-24T06:17:35;3.85;;;2.15;;
70744;SDS011;59284;31.390;34.904;2023-06-24T06:20:25;5.40;;;2.58;;
70744;SDS011;59284;31.390;34.904;2023-06-24T06:23:14;4.90;;;2.88;;
70744;SDS011;59284;31.390;34.904;2023-06-24T06:26:05;4.75;;;2.70;;
70744;SDS011;59284;31.390;34.904;2023-06-24T06:28:56;5.43;;;2.90;;
70744;SDS011;59284;31.390;34.904;2023-06-24T06:31:49;7.03;;;4.15;;
70744;SDS011;59284;31.390;34.904;2023-06-24T06:34:41;4.00;;;2.67;;
70744;SDS011;59284;31.390;34.904;2023-06-24T06:37:33;6.53;;;3.20;;
70744;SDS011;59284;31.390;34.904;2023-06-24T06:40:25;3.38;;;2.50;;
70744;SDS011;59284;31.390;34.904;2023-06-24T06:43:16;6.03;;;2.67;;
70744;SDS011;59284;31.390;34.904;2023-06-24T06:46:07;5.10;;;2.38;;
70744;SDS011;59284;31.390;34.904;2023-06-24T06:49:00;4.80;;;3.45;;
70744;SDS011;59284;31.390;34.904;2023-06-24T06:51:53;9.05;;;2.95;;
70744;SDS011;59284;31.390;34.904;2023-06-24T06:54:45;4.10;;;2.70;;
70744;SDS011;59284;31.390;34.904;2023-06-24T06:57:37;4.70;;;2.87;;
70744;SDS011;59284;31.390;34.904;2023-06-24T07:00:27;6.82;;;3.03;;
70744;SDS011;59284;31.390;34.904;2023-06-24T07:03:18;6.55;;;3.13;;
70744;SDS011;59284;31.390;34.904;2023-06-24T07:06:11;6.13;;;2.90;;
70744;SDS011;59284;31.390;34.904;2023-06-24T07:09:04;4.28;;;2.88;;
70744;SDS011;59284;31.390;34.904;2023-06-24T07:11:57;4.40;;;3.00;;
70744;SDS011;59284;31.390;34.904;2023-06-24T07:14:49;3.65;;;2.58;;
70744;SDS011;59284;31.390;34.904;2023-06-24T07:17:44;4.80;;;2.65;;
70744;SDS011;59284;31.390;34.904;2023-06-24T07:20:37;4.63;;;3.20;;
70744;SDS011;59284;31.390;34.904;2023-06-24T07:23:29;5.80;;;2.53;;
70744;SDS011;59284;31.390;34.904;2023-06-24T07:26:21;5.05;;;2.72;;
70744;SDS011;59284;31.390;34.904;2023-06-24T07:29:13;5.77;;;2.90;;
70744;SDS011;59284;31.390;34.904;2023-06-24T07:32:04;5.88;;;3.20;;
70744;SDS011;59284;31.390;34.904;2023-06-24T07:34:55;4.60;;;2.97;;
70744;SDS011;59284;31.390;34.904;2023-06-24T07:37:47;4.75;;;2.90;;
70744;SDS011;59284;31.390;34.904;2023-06-24T07:40:40;6.13;;;3.42;;
70744;SDS011;59284;31.390;34.904;2023-06-24T07:43:28;5.93;;;3.00;;
70744;SDS011;59284;31.390;34.904;2023-06-24T07:46:20;4.28;;;2.90;;
70744;SDS011;59284;31.390;34.904;2023-06-24T07:49:13;5.68;;;2.88;;
70744;SDS011;59284;31.390;34.904;2023-06-24T07:52:04;5.32;;;2.95;;
70744;SDS011;59284;31.390;34.904;2023-06-24T07:54:57;6.57;;;3.08;;
70744;SDS011;59284;31.390;34.904;2023-06-24T07:57:48;4.43;;;2.77;;
70744;SDS011;59284;31.390;34.904;2023-06-24T08:00:39;5.80;;;2.80;;
70744;SDS011;59284;31.390;34.904;2023-06-24T08:03:31;4.25;;;3.00;;
70744;SDS011;59284;31.390;34.904;2023-06-24T08:06:23;4.63;;;3.03;;
70744;SDS011;59284;31.390;34.904;2023-06-24T08:09:16;5.35;;;3.05;;
70744;SDS011;59284;31.390;34.904;2023-06-24T08:12:08;5.73;;;3.10;;
70744;SDS011;59284;31.390;34.904;2023-06-24T08:15:00;5.05;;;2.97;;
70744;SDS011;59284;31.390;34.904;2023-06-24T08:17:53;4.95;;;2.60;;
70744;SDS011;59284;31.390;34.904;2023-06-24T08:20:45;5.65;;;2.55;;
70744;SDS011;59284;31.390;34.904;2023-06-24T08:23:35;6.05;;;3.03;;
70744;SDS011;59284;31.390;34.904;2023-06-24T08:26:27;5.03;;;3.40;;
70744;SDS011;59284;31.390;34.904;2023-06-24T08:29:19;4.22;;;3.00;;
70744;SDS011;59284;31.390;34.904;2023-06-24T08:32:11;7.25;;;2.97;;
70744;SDS011;59284;31.390;34.904;2023-06-24T08:35:03;5.68;;;3.40;;
70744;SDS011;59284;31.390;34.904;2023-06-24T08:37:56;6.50;;;3.53;;
70744;SDS011;59284;31.390;34.904;2023-06-24T08:40:47;8.27;;;3.40;;
70744;SDS011;59284;31.390;34.904;2023-06-24T08:43:40;6.65;;;3.53;;
70744;SDS011;59284;31.390;34.904;2023-06-24T08:46:33;5.95;;;3.65;;
70744;SDS011;59284;31.390;34.904;2023-06-24T08:52:21;5.65;;;3.60;;
70744;SDS011;59284;31.390;34.904;2023-06-24T08:55:17;4.80;;;3.20;;
70744;SDS011;59284;31.390;34.904;2023-06-24T08:58:09;3.88;;;2.55;;
70744;SDS011;59284;31.390;34.904;2023-06-24T09:01:01;5.93;;;3.20;;
70744;SDS011;59284;31.390;34.904;2023-06-24T09:03:53;6.43;;;3.20;;
70744;SDS011;59284;31.390;34.904;2023-06-24T09:06:44;6.80;;;3.58;;
70744;SDS011;59284;31.390;34.904;2023-06-24T09:09:43;8.50;;;3.77;;
70744;SDS011;59284;31.390;34.904;2023-06-24T09:12:35;6.60;;;3.90;;
70744;SDS011;59284;31.390;34.904;2023-06-24T09:15:31;4.90;;;3.60;;
70744;SDS011;59284;31.390;34.904;2023-06-24T09:18:24;5.90;;;3.22;;
70744;SDS011;59284;31.390;34.904;2023-06-24T09:21:26;4.80;;;3.28;;
70744;SDS011;59284;31.390;34.904;2023-06-24T09:24:17;5.53;;;3.45;;
70744;SDS011;59284;31.390;34.904;2023-06-24T09:27:11;7.03;;;4.23;;
70744;SDS011;59284;31.390;34.904;2023-06-24T09:30:16;5.20;;;3.50;;
70744;SDS011;59284;31.390;34.904;2023-06-24T09:33:10;5.68;;;3.55;;
70744;SDS011;59284;31.390;34.904;2023-06-24T09:36:02;4.82;;;3.20;;
70744;SDS011;59284;31.390;34.904;2023-06-24T09:38:53;5.75;;;4.00;;
70744;SDS011;59284;31.390;34.904;2023-06-24T09:41:57;6.43;;;3.80;;
70744;SDS011;59284;31.390;34.904;2023-06-24T09:44:55;6.45;;;3.60;;
70744;SDS011;59284;31.390;34.904;2023-06-24T09:47:49;4.55;;;3.28;;
70744;SDS011;59284;31.390;34.904;2023-06-24T09:50:40;7.90;;;3.60;;
70744;SDS011;59284;31.390;34.904;2023-06-24T09:53:33;6.80;;;3.63;;
70744;SDS011;59284;31.390;34.904;2023-06-24T09:56:23;5.20;;;3.77;;
70744;SDS011;59284;31.390;34.904;2023-06-24T09:59:18;5.03;;;3.45;;
70744;SDS011;59284;31.390;34.904;2023-06-24T10:02:12;4.50;;;3.42;;
70744;SDS011;59284;31.390;34.904;2023-06-24T10:05:04;5.60;;;3.72;;
70744;SDS011;59284;31.390;34.904;2023-06-24T10:07:56;5.95;;;3.97;;
70744;SDS011;59284;31.390;34.904;2023-06-24T10:10:48;7.77;;;3.40;;
70744;SDS011;59284;31.390;34.904;2023-06-24T10:13:38;6.32;;;3.78;;
70744;SDS011;59284;31.390;34.904;2023-06-24T10:16:30;5.85;;;3.50;;
70744;SDS011;59284;31.390;34.904;2023-06-24T10:19:26;6.13;;;4.07;;
70744;SDS011;59284;31.390;34.904;2023-06-24T10:22:22;6.55;;;3.42;;
70744;SDS011;59284;31.390;34.904;2023-06-24T10:25:16;6.40;;;3.80;;
70744;SDS011;59284;31.390;34.904;2023-06-24T10:28:07;7.55;;;3.65;;
70744;SDS011;59284;31.390;34.904;2023-06-24T10:31:18;5.30;;;3.60;;
70744;SDS011;59284;31.390;34.904;2023-06-24T10:40:02;6.03;;;3.40;;
70744;SDS011;59284;31.390;34.904;2023-06-24T10:46:16;5.75;;;3.55;;
70744;SDS011;59284;31.390;34.904;2023-06-24T10:49:08;6.60;;;3.25;;
70744;SDS011;59284;31.390;34.904;2023-06-24T10:51:59;6.70;;;3.45;;
70744;SDS011;59284;31.390;34.904;2023-06-24T10:54:52;5.27;;;3.10;;
70744;SDS011;59284;31.390;34.904;2023-06-24T10:57:45;5.15;;;3.60;;
70744;SDS011;59284;31.390;34.904;2023-06-24T11:00:39;5.32;;;3.15;;
70744;SDS011;59284;31.390;34.904;2023-06-24T11:03:34;4.63;;;3.08;;
70744;SDS011;59284;31.390;34.904;2023-06-24T11:06:30;5.50;;;3.20;;
70744;SDS011;59284;31.390;34.904;2023-06-24T11:09:02;4.57;;;2.90;;
70744;SDS011;59284;31.390;34.904;2023-06-24T11:11:54;3.75;;;2.45;;
70744;SDS011;59284;31.390;34.904;2023-06-24T11:14:51;5.90;;;3.30;;
70744;SDS011;59284;31.390;34.904;2023-06-24T11:17:44;4.72;;;3.45;;
70744;SDS011;59284;31.390;34.904;2023-06-24T11:20:36;5.40;;;2.63;;
70744;SDS011;59284;31.390;34.904;2023-06-24T11:23:28;5.40;;;2.57;;
70744;SDS011;59284;31.390;34.904;2023-06-24T11:26:19;5.32;;;3.33;;
70744;SDS011;59284;31.390;34.904;2023-06-24T11:29:11;5.18;;;3.13;;
70744;SDS011;59284;31.390;34.904;2023-06-24T11:32:06;5.60;;;3.28;;
70744;SDS011;59284;31.390;34.904;2023-06-24T11:35:03;5.55;;;2.95;;
70744;SDS011;59284;31.390;34.904;2023-06-24T11:38:00;5.13;;;2.87;;
70744;SDS011;59284;31.390;34.904;2023-06-24T11:40:57;8.10;;;2.97;;
70744;SDS011;59284;31.390;34.904;2023-06-24T11:43:48;6.55;;;3.97;;
70744;SDS011;59284;31.390;34.904;2023-06-24T11:46:40;8.30;;;3.45;;
70744;SDS011;59284;31.390;34.904;2023-06-24T11:49:31;5.47;;;3.45;;
70744;SDS011;59284;31.390;34.904;2023-06-24T11:55:27;4.53;;;3.20;;
70744;SDS011;59284;31.390;34.904;2023-06-24T11:58:19;7.55;;;2.97;;
70744;SDS011;59284;31.390;34.904;2023-06-24T12:01:11;6.10;;;3.38;;
70744;SDS011;59284;31.390;34.904;2023-06-24T12:04:11;5.65;;;2.90;;
70744;SDS011;59284;31.390;34.904;2023-06-24T12:07:05;6.97;;;2.97;;
70744;SDS011;59284;31.390;34.904;2023-06-24T12:09:56;4.55;;;3.00;;
70744;SDS011;59284;31.390;34.904;2023-06-24T12:12:46;6.13;;;3.38;;
70744;SDS011;59284;31.390;34.904;2023-06-24T12:15:36;4.35;;;3.35;;
70744;SDS011;59284;31.390;34.904;2023-06-24T12:18:29;5.50;;;3.08;;
70744;SDS011;59284;31.390;34.904;2023-06-24T12:21:21;9.52;;;2.92;;
70744;SDS011;59284;31.390;34.904;2023-06-24T12:24:14;4.87;;;3.13;;
70744;SDS011;59284;31.390;34.904;2023-06-24T12:27:06;5.00;;;3.33;;
70744;SDS011;59284;31.390;34.904;2023-06-24T12:29:58;5.82;;;3.03;;
70744;SDS011;59284;31.390;34.904;2023-06-24T12:32:50;6.90;;;2.95;;
70744;SDS011;59284;31.390;34.904;2023-06-24T12:35:44;4.50;;;2.65;;
70744;SDS011;59284;31.390;34.904;2023-06-24T12:38:36;4.13;;;2.97;;
70744;SDS011;59284;31.390;34.904;2023-06-24T12:41:27;7.65;;;3.35;;
70744;SDS011;59284;31.390;34.904;2023-06-24T12:44:18;9.77;;;3.05;;
70744;SDS011;59284;31.390;34.904;2023-06-24T12:47:10;4.20;;;3.10;;
70744;SDS011;59284;31.390;34.904;2023-06-24T12:50:03;5.90;;;3.15;;
70744;SDS011;59284;31.390;34.904;2023-06-24T12:52:57;4.67;;;2.63;;
70744;SDS011;59284;31.390;34.904;2023-06-24T12:55:50;6.40;;;2.67;;
70744;SDS011;59284;31.390;34.904;2023-06-24T12:58:41;4.97;;;2.88;;
70744;SDS011;59284;31.390;34.904;2023-06-24T13:01:33;3.50;;;2.58;;
70744;SDS011;59284;31.390;34.904;2023-06-24T13:04:25;6.13;;;2.70;;
70744;SDS011;59284;31.390;34.904;2023-06-24T13:07:16;6.63;;;3.27;;
70744;SDS011;59284;31.390;34.904;2023-06-24T13:10:08;4.18;;;2.88;;
70744;SDS011;59284;31.390;34.904;2023-06-24T13:13:00;3.85;;;2.80;;
70744;SDS011;59284;31.390;34.904;2023-06-24T13:15:52;3.70;;;2.60;;
70744;SDS011;59284;31.390;34.904;2023-06-24T13:18:44;5.55;;;2.97;;
70744;SDS011;59284;31.390;34.904;2023-06-24T13:21:35;5.50;;;3.17;;
70744;SDS011;59284;31.390;34.904;2023-06-24T13:24:26;6.60;;;2.65;;
70744;SDS011;59284;31.390;34.904;2023-06-24T13:27:17;4.80;;;3.10;;
70744;SDS011;59284;31.390;34.904;2023-06-24T13:30:09;4.93;;;2.83;;
70744;SDS011;59284;31.390;34.904;2023-06-24T13:33:02;5.65;;;2.70;;
70744;SDS011;59284;31.390;34.904;2023-06-24T13:35:54;4.07;;;2.70;;
70744;SDS011;59284;31.390;34.904;2023-06-24T13:38:54;6.45;;;3.00;;
70744;SDS011;59284;31.390;34.904;2023-06-24T13:41:49;5.97;;;2.78;;
70744;SDS011;59284;31.390;34.904;2023-06-24T13:44:41;6.18;;;2.63;;
70744;SDS011;59284;31.390;34.904;2023-06-24T13:47:33;5.00;;;3.03;;
70744;SDS011;59284;31.390;34.904;2023-06-24T13:50:24;4.90;;;2.60;;
70744;SDS011;59284;31.390;34.904;2023-06-24T13:53:15;4.30;;;2.22;;
70744;SDS011;59284;31.390;34.904;2023-06-24T13:56:08;4.57;;;2.92;;
70744;SDS011;59284;31.390;34.904;2023-06-24T13:58:59;5.00;;;2.63;;
70744;SDS011;59284;31.390;34.904;2023-06-24T14:01:51;5.60;;;2.92;;
70744;SDS011;59284;31.390;34.904;2023-06-24T14:04:44;3.83;;;2.40;;
70744;SDS011;59284;31.390;34.904;2023-06-24T14:07:35;7.78;;;2.90;;
70744;SDS011;59284;31.390;34.904;2023-06-24T14:10:27;5.88;;;2.75;;
70744;SDS011;59284;31.390;34.904;2023-06-24T14:13:18;3.65;;;2.30;;
70744;SDS011;59284;31.390;34.904;2023-06-24T14:16:09;4.72;;;2.78;;
70744;SDS011;59284;31.390;34.904;2023-06-24T14:19:01;3.43;;;2.50;;
70744;SDS011;59284;31.390;34.904;2023-06-24T14:21:54;4.97;;;2.70;;
70744;SDS011;59284;31.390;34.904;2023-06-24T14:24:48;5.30;;;3.10;;
70744;SDS011;59284;31.390;34.904;2023-06-24T14:27:38;6.45;;;2.55;;
70744;SDS011;59284;31.390;34.904;2023-06-24T14:30:30;4.68;;;2.80;;
70744;SDS011;59284;31.390;34.904;2023-06-24T14:33:22;7.37;;;3.00;;
70744;SDS011;59284;31.390;34.904;2023-06-24T14:36:13;4.15;;;2.42;;
70744;SDS011;59284;31.390;34.904;2023-06-24T14:39:04;4.75;;;2.80;;
70744;SDS011;59284;31.390;34.904;2023-06-24T14:41:56;5.30;;;3.17;;
70744;SDS011;59284;31.390;34.904;2023-06-24T14:44:48;3.60;;;2.47;;
70744;SDS011;59284;31.390;34.904;2023-06-24T14:47:38;5.07;;;2.83;;
70744;SDS011;59284;31.390;34.904;2023-06-24T14:50:29;4.30;;;2.97;;
70744;SDS011;59284;31.390;34.904;2023-06-24T14:53:20;4.70;;;2.70;;
70744;SDS011;59284;31.390;34.904;2023-06-24T14:56:11;4.43;;;2.85;;
70744;SDS011;59284;31.390;34.904;2023-06-24T14:59:03;5.20;;;2.95;;
70744;SDS011;59284;31.390;34.904;2023-06-24T15:01:53;6.15;;;2.40;;
70744;SDS011;59284;31.390;34.904;2023-06-24T15:04:45;4.03;;;2.90;;
70744;SDS011;59284;31.390;34.904;2023-06-24T15:07:37;6.38;;;3.15;;
70744;SDS011;59284;31.390;34.904;2023-06-24T15:10:29;5.60;;;3.15;;
70744;SDS011;59284;31.390;34.904;2023-06-24T15:13:21;5.47;;;2.88;;
70744;SDS011;59284;31.390;34.904;2023-06-24T15:16:13;3.85;;;2.65;;
70744;SDS011;59284;31.390;34.904;2023-06-24T15:19:06;6.17;;;2.87;;
70744;SDS011;59284;31.390;34.904;2023-06-24T15:21:57;3.95;;;2.90;;
70744;SDS011;59284;31.390;34.904;2023-06-24T15:24:49;6.90;;;3.55;;
70744;SDS011;59284;31.390;34.904;2023-06-24T15:27:42;6.90;;;3.28;;
70744;SDS011;59284;31.390;34.904;2023-06-24T15:30:33;5.85;;;2.63;;
70744;SDS011;59284;31.390;34.904;2023-06-24T15:33:26;4.10;;;2.97;;
70744;SDS011;59284;31.390;34.904;2023-06-24T15:36:19;3.95;;;2.63;;
70744;SDS011;59284;31.390;34.904;2023-06-24T15:39:11;6.28;;;3.15;;
70744;SDS011;59284;31.390;34.904;2023-06-24T15:42:03;6.30;;;2.47;;
70744;SDS011;59284;31.390;34.904;2023-06-24T15:44:55;5.32;;;2.88;;
70744;SDS011;59284;31.390;34.904;2023-06-24T15:47:46;4.07;;;2.73;;
70744;SDS011;59284;31.390;34.904;2023-06-24T15:50:38;5.55;;;3.10;;
70744;SDS011;59284;31.390;34.904;2023-06-24T15:53:31;3.85;;;2.60;;
70744;SDS011;59284;31.390;34.904;2023-06-24T15:56:22;5.15;;;2.45;;
70744;SDS011;59284;31.390;34.904;2023-06-24T15:59:13;5.07;;;2.90;;
70744;SDS011;59284;31.390;34.904;2023-06-24T16:02:05;5.33;;;2.20;;
70744;SDS011;59284;31.390;34.904;2023-06-24T16:04:57;5.75;;;2.72;;
70744;SDS011;59284;31.390;34.904;2023-06-24T16:07:49;4.40;;;2.70;;
70744;SDS011;59284;31.390;34.904;2023-06-24T16:10:41;3.70;;;2.40;;
70744;SDS011;59284;31.390;34.904;2023-06-24T16:13:33;3.72;;;2.40;;
70744;SDS011;59284;31.390;34.904;2023-06-24T16:16:25;6.60;;;2.50;;
70744;SDS011;59284;31.390;34.904;2023-06-24T16:19:19;5.68;;;2.70;;
70744;SDS011;59284;31.390;34.904;2023-06-24T16:22:09;4.63;;;2.70;;
70744;SDS011;59284;31.390;34.904;2023-06-24T16:25:03;7.30;;;2.80;;
70744;SDS011;59284;31.390;34.904;2023-06-24T16:27:57;4.95;;;3.00;;
70744;SDS011;59284;31.390;34.904;2023-06-24T16:30:48;5.70;;;3.00;;
70744;SDS011;59284;31.390;34.904;2023-06-24T16:33:41;6.88;;;3.35;;
70744;SDS011;59284;31.390;34.904;2023-06-24T16:36:33;8.55;;;2.50;;
70744;SDS011;59284;31.390;34.904;2023-06-24T16:39:26;5.05;;;2.85;;
70744;SDS011;59284;31.390;34.904;2023-06-24T16:42:19;6.65;;;2.80;;
70744;SDS011;59284;31.390;34.904;2023-06-24T16:45:10;5.43;;;2.87;;
70744;SDS011;59284;31.390;34.904;2023-06-24T16:48:03;4.22;;;2.90;;
70744;SDS011;59284;31.390;34.904;2023-06-24T16:50:55;4.72;;;3.00;;
70744;SDS011;59284;31.390;34.904;2023-06-24T16:53:48;4.82;;;3.17;;
70744;SDS011;59284;31.390;34.904;2023-06-24T16:56:42;6.38;;;3.30;;
70744;SDS011;59284;31.390;34.904;2023-06-24T16:59:34;6.45;;;2.70;;
70744;SDS011;59284;31.390;34.904;2023-06-24T17:02:27;6.67;;;3.30;;
70744;SDS011;59284;31.390;34.904;2023-06-24T17:05:20;4.65;;;3.28;;
70744;SDS011;59284;31.390;34.904;2023-06-24T17:08:11;4.63;;;3.35;;
70744;SDS011;59284;31.390;34.904;2023-06-24T17:11:03;5.40;;;3.60;;
70744;SDS011;59284;31.390;34.904;2023-06-24T17:13:54;4.88;;;3.20;;
70744;SDS011;59284;31.390;34.904;2023-06-24T17:16:47;4.73;;;3.23;;
70744;SDS011;59284;31.390;34.904;2023-06-24T17:19:38;5.45;;;3.28;;
70744;SDS011;59284;31.390;34.904;2023-06-24T17:22:31;4.53;;;3.08;;
70744;SDS011;59284;31.390;34.904;2023-06-24T17:25:24;5.55;;;3.33;;
70744;SDS011;59284;31.390;34.904;2023-06-24T17:28:17;7.88;;;3.38;;
70744;SDS011;59284;31.390;34.904;2023-06-24T17:31:10;5.87;;;2.97;;
70744;SDS011;59284;31.390;34.904;2023-06-24T17:34:03;7.68;;;2.85;;
70744;SDS011;59284;31.390;34.904;2023-06-24T17:36:55;6.00;;;3.13;;
70744;SDS011;59284;31.390;34.904;2023-06-24T17:39:47;6.10;;;2.90;;
70744;SDS011;59284;31.390;34.904;2023-06-24T17:42:40;6.75;;;3.08;;
70744;SDS011;59284;31.390;34.904;2023-06-24T17:45:33;7.33;;;2.83;;
70744;SDS011;59284;31.390;34.904;2023-06-24T17:48:26;5.38;;;2.70;;
70744;SDS011;59284;31.390;34.904;2023-06-24T17:51:19;4.07;;;2.83;;